Forside
METAR-TAF:

METAR-TAF

Lufthavne :

Madeira Lufthavn

Funchal, Madeira, Portugal

Breddekreds: 32-41-52N, længdekreds: 016-46-28W, højde: 59 m

Aktuelle vejr

Denne rapport blev lavet for 39 minutter siden, kl. 17:30 UTC
Vind 16 kt fra nordøst
Temperatur 24°C
Fugtighed 69%
Tryk 1020 hPa
Sigt 10 km eller mere
Nogle få skyer i en højde af 1600 ft

METAR: LPMA 141730Z 04016KT 9999 FEW016 24/18 Q1020

Tid: 19:09 (18:09 UTC)

Vejrudsigter

Denne rapport blev lavet for 1 time og 9 minutter siden, kl. 17:00 UTC
Foreløbig gælder fra 14 på 18 UTC til 15 på 18 UTC
Vind 18 kt fra nordnordøst
Sigt 10 km eller mere
Spredte skyer i en højde af 1600 ft
Sandsynlighed 40% :
Midlertidig
fra 14 på 18 UTC til 15 på 18 UTC
Vind 20 kt fra nordnordøst med vindstød på up til 32 kt

TAF: LPMA 141700Z 1418/1518 03018KT 9999 SCT016 PROB40 TEMPO 1418/1518 03020G32KT

Vejrobservationer og prognoser fra mere end 4000 lufthavne (METAR og TAF).

De gule og røde prikker repræsenterer de meteorologiske stationer.

Flyt musen over at se navnet på stationen.

Så klik over at se vejr observationer og prognoser.

At skifte det kort: Klik på de grønne knapper med et sort kors for at zoome ind; på den grønne knap med en bindestreg for at zoome ud; eller på de grønne pile for tilstødende kort.


METAR-TAF: